Durango Ski Resort, Colorado Weather observations

Data are for observation ending at time listed.
 Day   Time    Ave.   Ave.  Ave.  Vector   Max.    Total    Solar   Ave.  
  of    of     Air    Rel.  Wind   Wind    Wind   Precip.   Rad.    Soil  
Year   Day     Temp.  Hum.  Speed  Dir.    Gust                     Temp. 
2016   (PST)    F      %     mph   deg.    mph      in.     W/m2     F   
------------------------------------------------------------------------------
 150    3:00   40.7    50    6.9   187      9.1    99999.00   99999    99999.0
 150    3:10   40.4    49   10.1   181     25.7    99999.00   99999    99999.0
 150    3:20   41.1    45    6.6   187      8.6    99999.00   99999    99999.0
 150    3:30   41.7    43    4.3   181      6.1    99999.00   99999    99999.0
 150    3:40   40.5    50    8.7   267     20.6    99999.00   99999    99999.0
 150    3:50   41.2    47    6.2   261     12.5    99999.00   99999    99999.0
 150    4:00   40.7    48    6.2   192      8.2    99999.00   99999    99999.0
 150    4:10   40.8    48    6.5   157      9.9    99999.00   99999    99999.0
 150    4:20   40.4    49    7.3   101      9.9    99999.00   99999    99999.0
 150    4:30   40.3    49    3.6    81      9.1    99999.00   99999    99999.0
 150    4:40   40.1    50    4.5    81      7.8    99999.00   99999    99999.0
 150    4:50   40.1    49    6.7    78      8.6    99999.00   99999    99999.0
 150    5:00   40.1    49    6.7    74      8.2    99999.00   99999    99999.0
 150    5:10   40.2    48    6.9    76      9.5    99999.00   99999    99999.0
 150    5:20   40.4    47    8.6    77     10.3    99999.00   99999    99999.0
 150    5:30   40.4    47    7.7    77      9.5    99999.00   99999    99999.0
 150    5:40   40.2    48    6.2    76      8.2    99999.00   99999    99999.0
 150    5:50   40.2    47    6.5    75      8.6    99999.00   99999    99999.0
 150    6:00   40.6    46    6.5    75      8.2    99999.00   99999    99999.0
 150    6:10   40.8    45    6.3    75      8.2    99999.00   99999    99999.0
 150    6:20   41.7    44    5.8    75      7.4    99999.00   99999    99999.0
 150    6:30   42.2    43    4.4    76      7.4    99999.00   99999    99999.0
 150    6:40   42.6    42    4.8    76      6.5    99999.00   99999    99999.0
 150    6:50   43.0    40    6.4    78      8.2    99999.00   99999    99999.0
 150    7:00   43.6    40    5.2    93      6.5    99999.00   99999    99999.0
 150    7:10   44.4    39    4.3    94      6.5    99999.00   99999    99999.0
 150    7:20   44.9    38    5.2    95      6.9    99999.00   99999    99999.0
 150    7:30   45.8    37    3.1   111      5.7    99999.00   99999    99999.0
 150    7:40   46.2    37    3.1   110      6.1    99999.00   99999    99999.0
 150    7:50   47.3    36    1.3   103      6.1    99999.00   99999    99999.0
 150    8:00   48.0    35    0.2   127      3.9    99999.00   99999    99999.0
 150    8:10   48.0    34    3.1   177      6.9    99999.00   99999    99999.0
 150    8:20   48.2    34    2.1   147      6.1    99999.00   99999    99999.0
 150    8:30   48.7    33    1.5   167      5.7    99999.00   99999    99999.0
 150    8:40   48.9    34    3.4   164      6.5    99999.00   99999    99999.0
 150    8:50   49.4    33    2.8   140      6.5    99999.00   99999    99999.0
 150    9:00   49.7    33    3.8   165      8.2    99999.00   99999    99999.0
 150    9:10   49.3    33    5.7   159      8.6    99999.00   99999    99999.0
 150    9:20   50.0    33    3.4   143      8.2    99999.00   99999    99999.0
 150    9:30   50.6    33    5.1   164      8.2    99999.00   99999    99999.0
 150    9:40   50.1    33    5.8   165      9.1    99999.00   99999    99999.0
 150    9:50   50.5    33    4.5   159      9.5    99999.00   99999    99999.0
 150   10:00   48.8    34    6.0   153     11.2    99999.00   99999    99999.0
 150   10:10   48.1    34    5.7   137      9.9    99999.00   99999    99999.0
 150   10:20   50.4    32    6.2   166     10.8    99999.00   99999    99999.0
 150   10:30   51.0    32    7.4   156     12.9    99999.00   99999    99999.0
 150   10:40   49.5    32    9.1   162     15.9    99999.00   99999    99999.0
 150   10:50   48.5    33    8.2   169     13.3    99999.00   99999    99999.0
 150   11:00   47.6    28    5.7   215     15.9    99999.00   99999    99999.0
 150   11:10   48.4    32    2.5   185      5.7    99999.00   99999    99999.0
 150   11:20   49.7    32    4.0   154     14.6    99999.00   99999    99999.0
 150   11:30   50.6    28    6.6   229     12.9    99999.00   99999    99999.0
 150   11:40   45.7    32   14.0   301     23.1    99999.00   99999    99999.0
 150   11:50   43.9    35   18.7   324     27.8    99999.00   99999    99999.0
 150   12:00   43.3    38   15.2   318     22.3    99999.00   99999    99999.0
 150   12:10   43.1    37   10.9   329     18.0    99999.00   99999    99999.0
 150   12:20   43.5    36   11.2   322     15.0    99999.00   99999    99999.0
 150   12:30   44.1    33    9.3   334     14.6    99999.00   99999    99999.0
 150   12:40   44.8    33    4.2   350      8.6    99999.00   99999    99999.0
 150   12:50   45.5    32    2.9   357      6.5    99999.00   99999    99999.0
 150   13:00   47.4    32    0.0     0      0.0    99999.00   99999    99999.0
 150   13:10   47.7    32    0.2    75      4.8    99999.00   99999    99999.0
 150   13:20   47.9    32    2.0    49      5.2    99999.00   99999    99999.0
 150   13:30   47.1    34    0.3    41      3.9    99999.00   99999    99999.0
 150   13:40   47.5    33    0.0     0      0.0    99999.00   99999    99999.0
 150   13:50   47.9    31    0.0     0      0.0    99999.00   99999    99999.0
 150   14:00   47.5    32    3.0    20      7.4    99999.00   99999    99999.0
 150   14:10   47.3    31    3.6     7      5.7    99999.00   99999    99999.0
 150   14:20   47.6    30    2.0     7      5.7    99999.00   99999    99999.0
 150   14:30   48.2    31    1.6     5      6.9    99999.00   99999    99999.0
 150   14:40   48.7    30    5.0   337      7.8    99999.00   99999    99999.0
 150   14:50   49.1    32   10.7   311     28.7    99999.00   99999    99999.0
 150   15:00   46.9    34   15.5   325     21.9    99999.00   99999    99999.0
 150   15:10   45.9    35   15.1   322     21.0    99999.00   99999    99999.0
 150   15:20   45.9    37   11.1   327     15.5    99999.00   99999    99999.0
 150   15:30   46.0    37    8.0   325     11.6    99999.00   99999    99999.0
 150   15:40   46.6    36    7.2   317     10.8    99999.00   99999    99999.0
 150   15:50   47.0    33    8.7   327     13.3    99999.00   99999    99999.0
 150   16:00   47.5    33    8.9   333     12.1    99999.00   99999    99999.0
 150   16:10   47.8    32    6.6   331     12.5    99999.00   99999    99999.0
 150   16:20   48.1    31    6.4   334     10.8    99999.00   99999    99999.0
 150   16:30   48.0    31    5.3   328      9.1    99999.00   99999    99999.0
 150   16:40   48.1    33    8.7   324     11.6    99999.00   99999    99999.0
 150   16:50   49.9    31    7.5   338     10.3    99999.00   99999    99999.0
 150   17:00   48.9    30    5.6     3     10.3    99999.00   99999    99999.0
 150   17:10   49.9    29    8.1   318     17.2    99999.00   99999    99999.0
 150   17:20   49.3    29   11.3   312     18.5    99999.00   99999    99999.0
 150   17:30   49.5    29    9.9   326     15.5    99999.00   99999    99999.0
 150   17:40   48.4    29    6.7   339      9.5    99999.00   99999    99999.0
 150   17:50   48.3    30    4.7   318      8.2    99999.00   99999    99999.0
 150   18:00   48.8    26    8.8   236     15.9    99999.00   99999    99999.0
 150   18:10   49.2    26    4.3   275     12.9    99999.00   99999    99999.0
 150   18:20   49.2    29    6.0   166      9.9    99999.00   99999    99999.0
 150   18:30   50.2    30    6.7    85     11.2    99999.00   99999    99999.0
 150   18:40   49.9    29    6.7    71     12.5    99999.00   99999    99999.0
 150   18:50   49.4    31    5.7    39      9.1    99999.00   99999    99999.0
 150   19:00   49.1    32    1.0    38      5.7    99999.00   99999    99999.0
 150   19:10   49.1    32    0.2    36      3.1    99999.00   99999    99999.0
 150   19:20   47.7    32    1.0     7      4.4    99999.00   99999    99999.0
 150   19:30   47.4    33    6.6   309     14.2    99999.00   99999    99999.0
 150   19:40   47.2    33   12.5   309     17.2    99999.00   99999    99999.0
 150   19:50   46.7    33   11.2   324     18.0    99999.00   99999    99999.0
 150   20:00   46.4    33    8.2   330     13.8    99999.00   99999    99999.0
 150   20:10   46.4    32    5.5     1      8.2    99999.00   99999    99999.0
 150   20:20   46.1    32    5.0     0      6.1    99999.00   99999    99999.0
 150   20:30   46.5    30    3.6   354      5.7    99999.00   99999    99999.0
 150   20:40   47.0    29    2.2   291      6.1    99999.00   99999    99999.0
 150   20:50   45.9    32    3.3    43      6.9    99999.00   99999    99999.0
 150   21:00   45.0    35    2.9    59      6.5    99999.00   99999    99999.0
 150   21:10   45.7    33    6.0    71      8.6    99999.00   99999    99999.0
 150   21:20   45.7    33    5.5    77      8.2    99999.00   99999    99999.0
 150   21:30   45.6    34    2.9    77      4.8    99999.00   99999    99999.0
 150   21:40   45.7    33    4.1    74      7.8    99999.00   99999    99999.0
 150   21:50   46.0    32    3.4    50      5.7    99999.00   99999    99999.0
 150   22:00   46.1    31    4.0    56      6.5    99999.00   99999    99999.0
 150   22:10   46.4    30    2.9    56      5.2    99999.00   99999    99999.0
 150   22:20   46.2    31    4.2    56      6.5    99999.00   99999    99999.0
 150   22:30   45.8    32    5.3    76      6.9    99999.00   99999    99999.0
 150   22:40   45.9    31    6.3    76      7.4    99999.00   99999    99999.0
 150   22:50   45.7    31    5.1    76      6.9    99999.00   99999    99999.0
 150   23:00   45.4    32    5.0    76      6.5    99999.00   99999    99999.0
 150   23:10   45.5    32    5.9    76      7.8    99999.00   99999    99999.0
 150   23:20   45.9    32    7.5    83      8.6    99999.00   99999    99999.0
 150   23:30   46.4    30    5.3    88      7.4    99999.00   99999    99999.0
 150   23:40   46.7    29    4.7    88      5.7    99999.00   99999    99999.0
 150   23:50   46.9    28    3.4    88      5.2    99999.00   99999    99999.0
 151    0:00   46.6    29    4.5    88      5.7    99999.00   99999    99999.0
 151    0:10   46.4    29    4.7    88      5.7    99999.00   99999    99999.0
 151    0:20   46.6    28    0.3    88      3.5    99999.00   99999    99999.0
 151    0:30   46.5    28    0.0     0      0.0    99999.00   99999    99999.0
 151    0:40   46.4    28    3.1    88      5.2    99999.00   99999    99999.0
 151    0:50   46.3    28    3.8    88      5.7    99999.00   99999    99999.0
 151    1:00   46.6    27    0.0     0      0.0    99999.00   99999    99999.0
 151    1:10   46.8    26    0.0     0      0.0    99999.00   99999    99999.0
 151    1:20   46.8    26    0.0     0      0.0    99999.00   99999    99999.0
 151    1:30   46.7    26    0.0     0      0.0    99999.00   99999    99999.0
 151    1:40   46.7    26    0.0     0      0.0    99999.00   99999    99999.0
 151    1:50   46.4    27    1.6    88      5.2    99999.00   99999    99999.0
 151    2:00   46.4    27    4.8    85      8.2    99999.00   99999    99999.0
 151    2:10   45.9    28    6.6    78      8.2    99999.00   99999    99999.0
 151    2:20   45.7    28    5.7    77      7.8    99999.00   99999    99999.0
 151    2:30   46.2    27    3.2    78      7.4    99999.00   99999    99999.0
 151    2:40   46.4    27    0.4    78      4.4    99999.00   99999    99999.0
 151    2:50   46.2    27    0.0     0      0.0    99999.00   99999    99999.0

Return to Durango Ski Resort, Colorado graphs page.


Western Regional Climate Center,wrcc@dri.edu